Time;durP1;ratioP1;P1;durP2;ratioP2;P2;SDS_P1;SDS_P2;PMS_P1;PMS_P2;Temp;Humidity;BMP_temperature;BMP_pressure;BME280_temperature;BME280_humidity;BME280_pressure;Samples;Min_cycle;Max_cycle;Signal;HPM_P1;HPM_P2
2022/01/23 00:01:48;;;;;;;48.45;27.10;;;;;;;5.29;84.56;103475.00;5035428;28;20044;-68
2022/01/23 00:04:16;;;;;;;46.63;27.67;;;;;;;5.27;84.48;103476.66;5023598;28;20026;-71
2022/01/23 00:06:46;;;;;;;46.30;26.50;;;;;;;5.26;84.38;103477.50;5031225;28;20042;-68
2022/01/23 00:09:15;;;;;;;43.63;25.02;;;;;;;5.26;84.47;103482.72;5035480;28;20547;-67
2022/01/23 00:11:50;;;;;;;41.75;25.20;;;;;;;5.27;84.54;103467.94;5032057;28;20038;-67
2022/01/23 00:19:40;;;;;;;46.95;27.05;;;;;;;5.29;84.49;103474.13;5025295;28;20042;-70
2022/01/23 00:22:09;;;;;;;41.58;26.63;;;;;;;5.30;84.69;103465.41;5019553;28;20050;-69
2022/01/23 00:30:21;;;;;;;41.13;26.17;;;;;;;5.33;84.51;103467.25;5026600;28;20069;-69
2022/01/23 00:32:49;;;;;;;42.35;25.65;;;;;;;5.33;84.57;103467.25;5021610;28;20053;-69
2022/01/23 00:35:17;;;;;;;43.17;26.45;;;;;;;5.33;84.60;103470.75;5021965;28;20078;-69
2022/01/23 00:37:44;;;;;;;46.80;26.92;;;;;;;5.33;84.61;103473.38;5029317;28;20057;-68
2022/01/23 00:40:12;;;;;;;43.35;25.95;;;;;;;5.32;84.65;103481.19;5023212;28;20042;-70
2022/01/23 00:42:39;;;;;;;43.38;25.60;;;;;;;5.32;84.64;103481.19;5029191;28;20046;-70
2022/01/23 00:48:01;;;;;;;46.05;28.25;;;;;;;5.29;84.65;103471.50;5023848;28;20388;-71
2022/01/23 00:50:35;;;;;;;45.15;25.70;;;;;;;5.29;84.56;103469.75;5036496;28;20773;-71
2022/01/23 00:53:09;;;;;;;45.47;27.80;;;;;;;5.27;84.62;103468.81;5016198;28;20038;-70
2022/01/23 00:55:39;;;;;;;47.10;26.25;;;;;;;5.28;84.58;103473.22;5032991;28;20048;-70
2022/01/23 00:58:06;;;;;;;40.65;26.27;;;;;;;5.28;84.68;103469.72;5027439;28;20508;-70
2022/01/23 01:00:35;;;;;;;47.22;25.77;;;;;;;5.29;84.79;103464.53;5025450;28;20461;-70
2022/01/23 01:03:04;;;;;;;45.03;26.77;;;;;;;5.29;84.76;103469.75;5027078;28;20053;-70
2022/01/23 01:05:31;;;;;;;43.00;25.08;;;;;;;5.29;84.56;103464.53;5016665;28;20092;-70
2022/01/23 01:08:02;;;;;;;40.35;24.38;;;;;;;5.31;84.79;103480.28;5019568;28;20046;-69
2022/01/23 01:13:30;;;;;;;;;;;;;;;5.27;84.63;103481.03;5008603;28;20113;-69
2022/01/23 01:16:38;;;;;;;43.45;25.38;;;;;;;5.27;84.63;103486.25;5027125;28;19932;-70
2022/01/23 01:35:27;;;;;;;41.90;25.30;;;;;;;5.30;84.43;103470.63;5021741;28;20449;-69
2022/01/23 01:37:55;;;;;;;44.03;25.88;;;;;;;5.32;84.72;103475.94;5040538;28;20049;-69
2022/01/23 01:40:25;;;;;;;43.08;25.17;;;;;;;5.32;84.64;103465.47;5018034;28;20034;-70
2022/01/23 01:42:53;;;;;;;40.22;25.00;;;;;;;5.32;84.51;103468.09;5030781;28;20117;-68
2022/01/23 01:45:24;;;;;;;42.83;25.33;;;;;;;5.33;84.50;103470.75;5032866;28;20043;-68
2022/01/23 01:48:00;;;;;;;42.47;25.88;;;;;;;5.32;84.54;103471.59;5022976;28;20594;-68
2022/01/23 01:50:32;;;;;;;43.22;25.38;;;;;;;5.32;84.51;103463.75;5040577;28;20072;-69
2022/01/23 01:53:03;;;;;;;43.10;26.30;;;;;;;5.33;84.38;103462.91;5020235;28;20109;-68
2022/01/23 01:55:39;;;;;;;44.65;25.55;;;;;;;5.35;84.43;103470.78;5032096;28;20046;-69
2022/01/23 01:58:13;;;;;;;41.17;25.58;;;;;;;5.35;84.41;103461.25;5030947;28;20062;-68
2022/01/23 02:00:56;;;;;;;49.25;25.35;;;;;;;5.34;84.23;103446.38;5018345;28;20046;-68
2022/01/23 02:09:18;;;;;;;42.15;24.08;;;;;;;5.34;84.19;103427.19;5019620;28;20121;-68
2022/01/23 02:12:26;;;;;;;43.23;25.80;;;;;;;5.32;84.27;103437.59;5013142;28;20051;-70
2022/01/23 02:23:43;;;;;;;39.35;24.27;;;;;;;5.26;84.22;103446.13;5021119;28;20061;-69
2022/01/23 02:57:04;;;;;;;36.38;22.98;;;;;;;5.16;84.33;103448.38;5039295;28;20046;-67
2022/01/23 02:59:31;;;;;;;39.15;23.48;;;;;;;5.16;84.36;103454.47;5023693;28;20085;-67
2022/01/23 03:02:37;;;;;;;40.35;23.77;;;;;;;5.16;84.31;103446.63;5019136;28;20130;-70
2022/01/23 03:08:18;;;;;;;37.78;22.88;;;;;;;5.15;84.36;103446.59;5014207;28;19926;-67
2022/01/23 03:10:58;;;;;;;36.72;22.95;;;;;;;5.15;84.31;103447.47;5025968;28;20092;-66
2022/01/23 03:13:52;;;;;;;42.40;23.98;;;;;;;5.16;84.29;103446.63;5024307;28;20098;-67
2022/01/23 03:24:50;;;;;;;41.53;23.83;;;;;;;5.20;84.42;103438.06;5022960;28;20124;-67
2022/01/23 03:30:28;;;;;;;41.13;24.88;;;;;;;5.22;84.26;103440.72;5023375;28;20566;-68
2022/01/23 03:32:55;;;;;;;40.78;24.50;;;;;;;5.22;84.17;103435.50;5019729;28;20123;-67
2022/01/23 03:35:23;;;;;;;41.95;24.85;;;;;;;5.23;84.08;103448.66;5020580;28;20042;-68
2022/01/23 03:37:50;;;;;;;43.30;23.73;;;;;;;5.23;84.17;103448.66;5031968;28;20038;-67
2022/01/23 03:40:18;;;;;;;36.08;22.65;;;;;;;5.22;84.08;103452.09;5034798;28;20056;-67
2022/01/23 03:42:48;;;;;;;38.53;23.65;;;;;;;5.22;84.12;103444.25;5025143;28;20460;-67
2022/01/23 03:45:42;;;;;;;41.55;24.08;;;;;;;5.24;84.24;103447.78;5029351;28;20487;-69
2022/01/23 03:50:47;;;;;;;40.00;23.13;;;;;;;5.24;84.17;103459.97;5028593;28;20126;-68
2022/01/23 03:53:31;;;;;;;36.63;22.88;;;;;;;5.26;84.02;103469.66;5021723;28;20043;-68
2022/01/23 03:55:58;;;;;;;41.45;23.88;;;;;;;5.25;84.13;103473.09;5037444;28;20046;-69
2022/01/23 03:58:26;;;;;;;39.55;22.45;;;;;;;5.25;84.14;103470.47;5024173;28;20125;-68
2022/01/23 04:00:53;;;;;;;37.83;22.67;;;;;;;5.24;84.07;103463.47;5032012;28;20053;-66
2022/01/23 04:03:22;;;;;;;38.55;23.13;;;;;;;5.25;84.05;103469.59;5027196;28;20077;-68
2022/01/23 04:05:52;;;;;;;37.53;23.35;;;;;;;5.24;84.11;103467.81;5017415;28;20097;-67
2022/01/23 04:08:20;;;;;;;40.83;23.00;;;;;;;5.25;84.14;103470.47;5032602;28;20050;-67
2022/01/23 04:10:48;;;;;;;38.58;22.50;;;;;;;5.26;84.06;103472.28;5022580;28;20514;-66
2022/01/23 04:13:35;;;;;;;37.33;23.27;;;;;;;5.27;83.91;103467.94;5016642;28;20113;-67
2022/01/23 04:46:18;;;;;;;37.15;21.00;;;;;;;5.29;83.58;103469.75;5028939;28;20119;-67
2022/01/23 04:49:07;;;;;;;37.28;21.98;;;;;;;5.29;83.54;103468.91;5016839;28;20049;-70
2022/01/23 05:00:22;;;;;;;39.28;22.13;;;;;;;5.28;83.52;103470.59;5028836;28;20113;-67
2022/01/23 05:06:03;;;;;;;35.78;22.75;;;;;;;5.29;83.54;103468.91;5021236;28;20113;-67
2022/01/23 05:08:52;;;;;;;;;;;;;;;5.28;83.58;103464.50;5019219;28;20054;-69
2022/01/23 05:11:47;;;;;;;37.50;22.25;;;;;;;5.28;83.62;103461.88;5024632;28;20463;-68
2022/01/23 05:14:28;;;;;;;38.13;22.23;;;;;;;5.28;83.52;103467.09;5020812;28;20043;-69
2022/01/23 05:16:57;;;;;;;38.25;21.58;;;;;;;5.28;83.44;103470.59;5019391;28;20047;-66
2022/01/23 05:19:25;;;;;;;36.72;21.40;;;;;;;5.27;83.48;103467.94;5026381;28;20121;-67
2022/01/23 05:24:38;;;;;;;38.17;22.42;;;;;;;5.31;83.52;103466.31;5028415;28;20045;-68
2022/01/23 05:27:09;;;;;;;36.15;21.67;;;;;;;5.33;83.51;103480.34;5027597;28;20057;-67
2022/01/23 05:29:37;;;;;;;40.67;22.63;;;;;;;5.34;83.36;103476.88;5036968;28;20038;-67
2022/01/23 05:32:08;;;;;;;37.33;21.77;;;;;;;5.35;83.35;103476.03;5042499;28;20042;-68
2022/01/23 05:34:36;;;;;;;38.67;22.45;;;;;;;5.35;83.26;103476.03;5031455;28;20046;-69
2022/01/23 05:37:11;;;;;;;39.25;21.88;;;;;;;5.35;83.15;103476.94;5030929;28;20085;-68
2022/01/23 05:39:41;;;;;;;33.95;21.08;;;;;;;5.34;83.06;103474.28;5040556;28;20048;-65
2022/01/23 05:42:09;;;;;;;37.50;21.88;;;;;;;5.34;83.12;103475.16;5023281;28;20480;-65
2022/01/23 05:44:41;;;;;;;37.15;21.95;;;;;;;5.34;83.31;103474.28;5018359;28;20053;-65
2022/01/23 05:47:12;;;;;;;37.20;22.33;;;;;;;5.32;83.28;103468.97;5023570;28;20070;-67
2022/01/23 05:50:09;;;;;;;36.72;22.23;;;;;;;5.31;83.29;103469.81;5026104;28;20066;-71
2022/01/23 05:52:55;;;;;;;37.38;21.98;;;;;;;5.32;83.28;103470.72;5020240;28;20052;-70
2022/01/23 05:55:29;;;;;;;36.17;21.45;;;;;;;5.32;83.29;103475.94;5020584;28;20089;-70
2022/01/23 05:58:04;;;;;;;38.33;22.13;;;;;;;5.33;83.38;103480.34;5036661;28;20489;-68
2022/01/23 06:00:38;;;;;;;35.83;21.52;;;;;;;5.33;83.26;103475.97;5029101;28;20193;-68
2022/01/23 06:03:10;;;;;;;33.13;21.27;;;;;;;5.33;83.27;103478.59;5045303;28;20044;-68
2022/01/23 06:05:45;;;;;;;40.35;22.83;;;;;;;5.33;83.26;103481.22;5023355;28;20043;-66
2022/01/23 06:08:19;;;;;;;34.08;20.75;;;;;;;5.32;83.24;103482.06;5030065;28;20523;-66
2022/01/23 06:10:57;;;;;;;38.65;21.88;;;;;;;5.32;83.10;103483.78;5032107;28;20038;-65
2022/01/23 06:13:40;;;;;;;37.55;21.23;;;;;;;5.33;83.28;103475.09;5031537;28;20459;-65
2022/01/23 06:16:09;;;;;;;36.83;21.85;;;;;;;5.33;83.20;103478.59;5032451;28;20393;-71
2022/01/23 06:18:40;;;;;;;40.08;22.95;;;;;;;5.34;83.26;103488.22;5028071;28;20480;-68
2022/01/23 06:21:27;;;;;;;35.45;21.48;;;;;;;5.34;83.17;103484.75;5029356;28;20117;-70
2022/01/23 06:24:24;;;;;;;37.67;21.67;;;;;;;5.33;83.33;103482.97;5032303;28;20113;-69
2022/01/23 06:27:17;;;;;;;36.85;22.45;;;;;;;5.33;83.15;103485.56;5030807;28;20046;-68
2022/01/23 06:29:45;;;;;;;36.00;22.02;;;;;;;5.33;83.23;103489.06;5017012;28;20053;-69
2022/01/23 06:32:13;;;;;;;36.40;20.80;;;;;;;5.35;83.25;103491.72;5029134;28;20046;-69
2022/01/23 06:34:42;;;;;;;38.80;21.13;;;;;;;5.34;83.18;103493.47;5037631;28;20457;-68
2022/01/23 06:37:18;;;;;;;38.80;23.00;;;;;;;5.35;83.26;103492.63;5031058;28;20057;-69
2022/01/23 06:39:45;;;;;;;33.22;20.88;;;;;;;5.35;83.21;103494.34;5027150;28;20101;-70
2022/01/23 06:42:23;;;;;;;38.95;21.75;;;;;;;5.35;83.36;103496.94;5031206;28;20038;-68
2022/01/23 06:45:13;;;;;;;37.30;22.20;;;;;;;5.33;83.33;103496.91;5023929;28;20050;-71
2022/01/23 06:47:40;;;;;;;37.17;21.80;;;;;;;5.34;83.22;103498.69;5027994;28;20042;-68
2022/01/23 06:50:11;;;;;;;33.17;20.77;;;;;;;5.34;83.36;103500.44;5020566;28;20042;-67
2022/01/23 06:52:39;;;;;;;33.10;20.95;;;;;;;5.34;83.53;103505.66;5033713;28;20089;-68
2022/01/23 06:55:06;;;;;;;34.88;21.38;;;;;;;5.34;83.22;103495.22;5023310;28;20490;-69
2022/01/23 06:57:35;;;;;;;37.30;21.35;;;;;;;5.34;83.19;103501.31;5033006;28;20057;-67
2022/01/23 07:00:05;;;;;;;38.38;21.67;;;;;;;5.35;83.28;103507.41;5028510;28;20527;-66
2022/01/23 07:02:50;;;;;;;32.70;20.40;;;;;;;5.34;83.33;103508.28;5028705;28;20037;-66
2022/01/23 07:05:29;;;;;;;37.60;21.58;;;;;;;5.34;83.47;103510.91;5033916;28;20090;-66
2022/01/23 07:08:02;;;;;;;35.17;21.17;;;;;;;5.34;83.29;103514.38;5031301;28;20042;-66
2022/01/23 07:10:49;;;;;;;35.45;22.15;;;;;;;5.34;83.29;103514.38;5033579;28;20074;-65
2022/01/23 07:13:25;;;;;;;36.42;21.10;;;;;;;5.33;83.24;103514.34;5029755;28;20523;-68
2022/01/23 07:16:10;;;;;;;38.53;22.95;;;;;;;5.33;83.22;103530.03;5025826;28;20068;-68
2022/01/23 07:18:56;;;;;;;37.22;21.80;;;;;;;5.32;83.32;103528.25;5031726;28;20063;-67
2022/01/23 07:21:26;;;;;;;35.50;21.83;;;;;;;5.31;83.44;103529.97;5015366;28;20044;-69
2022/01/23 07:23:54;;;;;;;39.45;21.52;;;;;;;5.28;83.17;103530.75;5034403;28;20046;-69
2022/01/23 07:26:26;;;;;;;33.65;20.75;;;;;;;5.29;83.13;103529.94;5025806;28;20034;-71
2022/01/23 07:29:00;;;;;;;35.63;21.80;;;;;;;5.29;83.29;103534.28;5023265;28;20073;-68
2022/01/23 07:34:06;;;;;;;37.72;21.20;;;;;;;5.29;83.28;103543.00;5033460;28;20045;-71
2022/01/23 07:36:34;;;;;;;39.35;23.10;;;;;;;5.29;83.27;103545.63;5030323;28;20073;-70
2022/01/23 07:39:10;;;;;;;37.45;23.25;;;;;;;5.29;83.38;103548.25;5035424;28;20042;-71
2022/01/23 07:41:49;;;;;;;38.78;22.30;;;;;;;5.29;83.29;103545.63;5034019;28;20049;-69
2022/01/23 07:44:42;;;;;;;35.17;21.80;;;;;;;5.31;83.32;103547.41;5027450;28;20069;-70
2022/01/23 07:47:31;;;;;;;36.30;21.63;;;;;;;5.32;83.18;103554.44;5016040;28;20077;-68
2022/01/23 07:50:16;;;;;;;37.00;21.70;;;;;;;5.33;83.27;103558.81;5028704;28;20128;-71
2022/01/23 07:53:16;;;;;;;36.72;21.65;;;;;;;5.32;83.22;103560.53;5024560;28;20507;-69
2022/01/23 07:55:55;;;;;;;38.75;22.38;;;;;;;5.32;83.10;103552.69;5025293;28;20042;-68
2022/01/23 07:58:52;;;;;;;42.55;23.73;;;;;;;5.32;83.23;103557.03;5020557;28;20102;-69
2022/01/23 08:01:39;;;;;;;37.83;22.08;;;;;;;5.34;83.32;103563.22;5020456;28;20054;-70
2022/01/23 08:04:29;;;;;;;37.80;22.50;;;;;;;5.34;83.14;103561.47;5027372;28;20038;-69
2022/01/23 08:07:09;;;;;;;37.95;22.20;;;;;;;5.36;83.19;103569.38;5031381;28;20050;-70
2022/01/23 08:10:02;;;;;;;38.50;22.73;;;;;;;5.35;83.33;103565.88;5024497;28;20054;-68
2022/01/23 08:12:31;;;;;;;37.97;22.13;;;;;;;5.37;83.30;103564.22;5028904;28;20040;-68
2022/01/23 08:15:00;;;;;;;34.35;22.73;;;;;;;5.40;83.18;103563.41;5022456;28;20038;-68
2022/01/23 08:17:31;;;;;;;37.25;22.17;;;;;;;5.41;83.20;103566.09;5028720;28;20089;-69
2022/01/23 08:20:00;;;;;;;40.33;23.58;;;;;;;5.46;83.33;103568.84;5030396;28;20046;-71
2022/01/23 08:22:31;;;;;;;40.15;22.85;;;;;;;5.49;83.34;103568.97;5029287;28;20050;-71
2022/01/23 08:24:58;;;;;;;39.20;21.98;;;;;;;5.51;83.31;103572.53;5030068;28;20812;-68
2022/01/23 08:27:26;;;;;;;44.97;24.50;;;;;;;5.54;83.14;103574.38;5026874;28;22198;-69
2022/01/23 08:30:01;;;;;;;39.28;22.60;;;;;;;5.57;83.13;103580.59;5023859;28;20966;-68
2022/01/23 08:32:28;;;;;;;38.70;23.77;;;;;;;5.59;83.01;103578.06;5019875;28;20049;-69
2022/01/23 08:34:56;;;;;;;39.20;22.65;;;;;;;5.61;82.91;103576.34;5027039;28;20163;-69
2022/01/23 08:37:29;;;;;;;40.35;23.23;;;;;;;5.61;82.75;103578.97;5024266;28;20065;-68
2022/01/23 08:39:56;;;;;;;42.63;23.67;;;;;;;5.61;82.76;103578.97;5025063;28;20817;-69
2022/01/23 08:42:23;;;;;;;36.72;23.25;;;;;;;5.63;82.67;103581.66;5031552;28;20073;-71
2022/01/23 08:44:50;;;;;;;41.38;23.05;;;;;;;5.62;82.52;103579.88;5025291;28;20489;-68
2022/01/23 08:47:18;;;;;;;43.45;23.63;;;;;;;5.61;82.47;103581.59;5031513;28;20555;-69
2022/01/23 08:49:48;;;;;;;43.65;23.35;;;;;;;5.60;82.41;103583.31;5036270;28;20119;-71
2022/01/23 08:52:21;;;;;;;41.08;22.02;;;;;;;5.64;82.56;103588.66;5022165;28;20074;-71
2022/01/23 08:54:56;;;;;;;37.75;22.38;;;;;;;5.67;82.43;103591.38;5025040;28;20041;-69
2022/01/23 08:57:25;;;;;;;42.17;23.63;;;;;;;5.69;82.26;103588.00;5019898;28;20081;-72
2022/01/23 08:59:52;;;;;;;38.97;22.27;;;;;;;5.71;82.34;103598.50;5029457;28;20046;-71
2022/01/23 09:02:19;;;;;;;41.60;25.35;;;;;;;5.71;82.23;103588.91;5032468;28;20041;-72
2022/01/23 09:04:47;;;;;;;38.38;23.58;;;;;;;5.71;82.25;103590.66;5021328;28;20046;-72
2022/01/23 09:07:14;;;;;;;39.28;24.08;;;;;;;5.73;82.28;103592.47;5024868;28;20042;-68
2022/01/23 09:09:41;;;;;;;41.42;22.27;;;;;;;5.76;82.33;103602.16;5026588;28;20508;-72
2022/01/23 09:14:47;;;;;;;45.28;25.05;;;;;;;5.82;82.19;103588.38;5026151;28;20046;-69
2022/01/23 09:17:15;;;;;;;41.97;24.75;;;;;;;5.84;82.16;103587.63;5023990;28;20519;-69
2022/01/23 09:19:46;;;;;;;41.22;24.58;;;;;;;5.89;82.19;103593.00;5022661;28;20074;-69
2022/01/23 09:22:14;;;;;;;47.38;25.60;;;;;;;5.91;82.27;103586.97;5031397;28;20524;-74
2022/01/23 09:24:42;;;;;;;44.22;24.77;;;;;;;5.97;82.23;103588.00;5020564;28;20045;-73
2022/01/23 09:27:18;;;;;;;46.08;27.23;;;;;;;6.01;82.02;103588.19;5033827;28;20961;-73
2022/01/23 09:29:50;;;;;;;44.72;25.63;;;;;;;6.07;82.20;103597.97;5031328;28;20052;-72
2022/01/23 09:32:22;;;;;;;45.22;25.30;;;;;;;6.11;82.14;103594.63;5035318;28;20133;-72
2022/01/23 09:34:51;;;;;;;40.30;25.17;;;;;;;6.14;82.01;103594.75;5027067;28;20090;-74
2022/01/23 09:37:19;;;;;;;44.42;25.67;;;;;;;6.18;81.91;103590.47;5020469;28;20946;-73
2022/01/23 09:39:49;;;;;;;47.63;25.10;;;;;;;6.24;82.02;103602.88;5010819;28;20046;-74
2022/01/23 09:42:33;;;;;;;45.95;25.10;;;;;;;6.29;81.88;103602.19;5015358;28;20074;-73
2022/01/23 09:45:07;;;;;;;49.67;24.80;;;;;;;6.34;82.09;103600.59;5010516;28;20588;-73
2022/01/23 09:47:38;;;;;;;46.30;25.95;;;;;;;6.39;81.72;103602.47;5011448;28;20114;-72
2022/01/23 09:50:09;;;;;;;43.75;26.15;;;;;;;6.42;81.55;103603.47;5009849;28;20046;-74
2022/01/23 09:52:38;;;;;;;47.97;25.65;;;;;;;6.45;81.40;103600.94;5013602;28;20168;-71
2022/01/23 09:55:11;;;;;;;42.40;25.23;;;;;;;6.48;81.22;103602.78;5009223;28;20035;-73
2022/01/23 09:57:48;;;;;;;42.78;24.83;;;;;;;6.51;81.24;103603.75;5017060;28;20133;-70
2022/01/23 10:00:24;;;;;;;46.08;25.90;;;;;;;6.53;81.15;103599.44;5011667;28;20043;-70
2022/01/23 10:02:52;;;;;;;42.88;25.02;;;;;;;6.58;81.16;103607.44;5011358;28;21090;-67
2022/01/23 10:05:21;;;;;;;41.83;25.05;;;;;;;6.61;80.94;103607.56;5006377;28;20046;-71
2022/01/23 10:07:49;;;;;;;44.20;24.90;;;;;;;6.65;81.11;103609.41;5024581;28;20039;-68
2022/01/23 10:10:23;;;;;;;52.22;33.30;;;;;;;6.67;80.99;103610.34;5011944;28;20480;-71
2022/01/23 10:13:01;;;;;;;102.32;54.15;;;;;;;6.72;81.03;103610.50;5007936;28;20034;-71
2022/01/23 10:15:31;;;;;;;57.67;33.97;;;;;;;6.75;80.85;103600.09;5006863;28;20046;-68
2022/01/23 10:18:00;;;;;;;48.80;28.73;;;;;;;6.76;80.85;103607.13;5012462;28;20046;-69
2022/01/23 10:20:30;;;;;;;45.47;26.80;;;;;;;6.80;80.87;103608.97;5010778;28;20529;-69
2022/01/23 10:22:58;;;;;;;51.55;31.67;;;;;;;6.84;80.90;103612.56;5010108;28;20070;-71
2022/01/23 10:25:31;;;;;;;45.58;24.42;;;;;;;6.89;80.75;103612.72;5006531;28;20046;-68
2022/01/23 10:28:16;;;;;;;43.78;24.77;;;;;;;6.86;80.52;103615.25;5012178;28;20049;-68
2022/01/23 10:30:56;;;;;;;37.22;22.15;;;;;;;6.82;80.26;103609.00;5011352;28;20046;-68
2022/01/23 10:33:32;;;;;;;44.22;23.98;;;;;;;6.80;80.35;103608.97;5013077;28;20085;-69
2022/01/23 10:36:09;;;;;;;42.28;24.45;;;;;;;6.83;80.45;103619.56;5013507;28;20038;-68
2022/01/23 10:38:59;;;;;;;41.75;25.08;;;;;;;6.90;80.22;103610.16;5013682;28;20071;-68
2022/01/23 10:41:48;;;;;;;41.10;23.60;;;;;;;6.94;80.27;103609.38;5012913;28;20181;-69
2022/01/23 10:50:06;;;;;;;39.25;22.90;;;;;;;6.84;79.99;103597.75;5014154;28;20045;-72
2022/01/23 10:52:44;;;;;;;44.38;24.38;;;;;;;6.88;80.31;103600.44;5007039;28;20074;-66
2022/01/23 10:55:11;;;;;;;46.30;24.80;;;;;;;6.93;79.75;103606.72;5013163;28;20038;-69
2022/01/23 10:57:41;;;;;;;42.05;24.30;;;;;;;6.96;80.15;103602.47;5007483;28;20531;-72
2022/01/23 11:00:35;;;;;;;40.10;23.52;;;;;;;7.00;79.99;103603.44;5009629;28;20042;-68
2022/01/23 11:03:16;;;;;;;39.25;23.92;;;;;;;6.99;79.96;103599.94;5008435;28;20468;-68
2022/01/23 11:05:45;;;;;;;38.17;22.98;;;;;;;6.98;79.93;103611.25;5009478;28;20049;-67
2022/01/23 11:08:26;;;;;;;40.30;24.15;;;;;;;6.98;79.47;103603.41;5011427;28;20085;-71
2022/01/23 11:10:57;;;;;;;39.03;23.45;;;;;;;6.96;79.45;103596.34;5014116;28;20046;-69
2022/01/23 11:19:26;;;;;;;39.75;23.63;;;;;;;6.99;79.90;103591.16;5010350;28;20047;-69
2022/01/23 11:21:54;;;;;;;40.88;23.70;;;;;;;7.07;79.75;103586.13;5007344;28;20038;-66
2022/01/23 11:24:33;;;;;;;39.58;23.92;;;;;;;7.11;79.63;103586.25;5016686;28;20042;-65
2022/01/23 11:27:03;;;;;;;39.33;23.27;;;;;;;7.14;79.59;103583.75;5006302;28;20089;-71
2022/01/23 11:29:31;;;;;;;39.03;23.23;;;;;;;7.17;79.34;103587.28;5014679;28;20057;-69
2022/01/23 11:31:59;;;;;;;40.65;23.73;;;;;;;7.20;79.43;103580.41;5015662;28;20030;-71
2022/01/23 11:34:29;;;;;;;41.22;24.42;;;;;;;7.26;79.54;103587.56;5014307;28;20043;-65
2022/01/23 11:36:56;;;;;;;38.03;22.85;;;;;;;7.30;79.49;103584.16;5013446;28;20035;-65
2022/01/23 11:40:19;;;;;;;41.47;24.27;;;;;;;7.34;79.47;103572.91;5008991;28;20046;-68
2022/01/23 11:56:24;;;;;;;38.15;24.17;;;;;;;7.61;79.15;103584.97;5011778;28;20105;-70
2022/01/23 11:59:24;;;;;;;41.70;23.58;;;;;;;7.62;79.08;103565.75;5009494;28;20054;-67
2022/01/23 12:02:14;;;;;;;39.60;23.02;;;;;;;7.67;79.05;103565.84;5012780;28;20421;-67
2022/01/23 12:05:05;;;;;;;38.70;24.40;;;;;;;7.69;78.97;103556.28;5011669;28;20920;-68
2022/01/23 12:07:34;;;;;;;42.13;23.83;;;;;;;7.71;79.03;103552.84;5012714;28;20081;-68
2022/01/23 12:10:16;;;;;;;43.63;25.38;;;;;;;7.74;78.86;103560.81;5010600;28;20050;-68
2022/01/23 12:12:47;;;;;;;40.28;23.15;;;;;;;7.76;78.71;103555.56;5010163;28;20070;-68
2022/01/23 12:18:28;;;;;;;36.00;22.17;;;;;;;7.78;78.60;103556.50;5011880;28;20038;-69
2022/01/23 12:20:56;;;;;;;40.90;24.45;;;;;;;7.79;78.76;103553.03;5001624;28;20052;-70
2022/01/23 12:23:24;;;;;;;39.65;24.13;;;;;;;7.79;78.66;103550.41;5004342;28;20045;-70
2022/01/23 12:25:56;;;;;;;38.55;22.52;;;;;;;7.80;78.56;103546.94;5003100;28;20039;-71
2022/01/23 12:28:32;;;;;;;39.50;23.90;;;;;;;7.82;78.59;103546.97;5011769;28;20038;-70
2022/01/23 12:31:14;;;;;;;36.03;22.73;;;;;;;7.83;78.08;103546.13;5007580;28;20043;-69
2022/01/23 12:33:46;;;;;;;47.63;27.88;;;;;;;7.82;78.33;103546.97;5007219;28;20093;-69
2022/01/23 12:36:13;;;;;;;43.72;28.52;;;;;;;7.80;78.42;103541.69;5009227;28;20089;-69
2022/01/23 12:38:48;;;;;;;39.05;22.85;;;;;;;7.82;78.07;103542.63;5009241;28;20050;-70
2022/01/23 12:41:26;;;;;;;39.78;24.38;;;;;;;7.81;78.14;103532.97;5002023;28;20061;-70
2022/01/23 12:44:20;;;;;;;49.08;28.30;;;;;;;7.83;77.99;103527.72;5010340;28;20046;-68
2022/01/23 12:46:59;;;;;;;38.70;23.42;;;;;;;7.83;78.09;103517.22;5004312;28;20042;-70
2022/01/23 12:49:46;;;;;;;41.30;25.05;;;;;;;7.86;78.02;103527.81;5024943;28;20034;-70
2022/01/23 12:52:17;;;;;;;39.65;21.67;;;;;;;7.87;77.94;103519.09;5015363;28;20046;-68
2022/01/23 12:54:47;;;;;;;45.95;28.92;;;;;;;7.87;77.68;103525.22;5009149;28;20041;-70
2022/01/23 12:57:20;;;;;;;39.60;23.55;;;;;;;7.88;77.85;103518.25;5008938;28;20058;-69
2022/01/23 12:59:54;;;;;;;36.92;23.45;;;;;;;7.90;77.83;103517.41;5010354;28;20050;-68
2022/01/23 13:02:25;;;;;;;41.63;24.73;;;;;;;7.91;77.94;103518.28;5010016;28;20509;-69
2022/01/23 13:04:55;;;;;;;39.45;23.02;;;;;;;7.92;78.01;103517.44;5011226;28;21104;-70
2022/01/23 13:07:38;;;;;;;39.15;23.73;;;;;;;7.92;77.90;103515.72;5010916;28;20464;-69
2022/01/23 13:13:17;;;;;;;44.13;25.20;;;;;;;7.91;77.67;103513.03;5006384;28;20035;-70
2022/01/23 13:16:02;;;;;;;43.00;23.48;;;;;;;7.89;77.85;103510.38;5012195;28;20105;-70
2022/01/23 13:19:21;;;;;;;51.92;32.03;;;;;;;7.88;77.97;103513.88;5018538;28;20060;-70
2022/01/23 13:34:59;;;;;;;48.08;30.52;;;;;;;7.88;77.78;103518.25;5007327;28;20030;-70
2022/01/23 13:37:31;;;;;;;49.50;32.72;;;;;;;7.88;77.78;103518.25;5001888;28;20129;-70
2022/01/23 13:40:09;;;;;;;51.35;32.95;;;;;;;7.87;77.72;103516.47;5013718;28;20121;-70
2022/01/23 14:02:28;;;;;;;54.05;33.85;;;;;;;7.78;77.41;103489.09;5007140;28;20125;-70
2022/01/23 14:05:18;;;;;;;51.88;29.60;;;;;;;7.77;77.19;103494.34;5003246;28;20110;-71
2022/01/23 14:07:53;;;;;;;90.30;55.92;;;;;;;7.75;77.10;103498.66;5008497;28;20038;-71
2022/01/23 14:10:27;;;;;;;56.58;34.17;;;;;;;7.71;77.14;103495.06;4995631;28;20049;-70
2022/01/23 14:13:15;;;;;;;41.88;22.23;;;;;;;7.70;77.24;103490.66;5003723;28;20045;-70
2022/01/23 14:15:51;;;;;;;31.83;19.13;;;;;;;7.69;77.40;103493.25;5009462;28;20054;-70
2022/01/23 14:18:26;;;;;;;35.55;21.92;;;;;;;7.68;77.28;103492.34;5004022;28;20065;-70
2022/01/23 14:21:09;;;;;;;;;;;;;;;7.65;77.65;103488.78;5015700;28;20045;-71
2022/01/23 14:23:36;;;;;;;32.92;18.77;;;;;;;7.64;77.33;103493.16;4995757;28;19926;-70
2022/01/23 14:26:09;;;;;;;29.30;18.02;;;;;;;7.63;77.22;103483.50;5011239;28;20047;-70
2022/01/23 14:28:45;;;;;;;29.02;17.52;;;;;;;7.61;77.31;103499.22;5006442;28;20418;-70
2022/01/23 14:31:18;;;;;;;28.27;16.90;;;;;;;7.60;77.42;103491.28;5024115;28;20490;-70
2022/01/23 14:33:50;;;;;;;29.50;16.55;;;;;;;7.59;77.50;103500.91;5013271;28;20494;-71
2022/01/23 14:36:31;;;;;;;27.40;16.60;;;;;;;7.59;77.27;103497.38;5009231;28;20130;-71
2022/01/23 14:39:00;;;;;;;26.83;16.90;;;;;;;7.56;77.14;103497.34;5015773;28;20049;-70
2022/01/23 14:41:33;;;;;;;28.70;17.50;;;;;;;7.55;77.12;103500.81;4998149;28;20070;-70
2022/01/23 14:44:13;;;;;;;29.95;16.95;;;;;;;7.51;77.14;103502.47;4998978;28;20050;-69
2022/01/23 14:46:40;;;;;;;30.33;17.25;;;;;;;7.49;76.89;103505.88;5015009;28;20042;-70
2022/01/23 14:49:11;;;;;;;30.08;17.77;;;;;;;7.45;77.16;103511.06;5014848;28;20118;-70
2022/01/23 14:51:39;;;;;;;30.05;16.75;;;;;;;7.43;77.39;103506.63;5014145;28;20081;-70
2022/01/23 14:54:06;;;;;;;28.35;17.25;;;;;;;7.40;77.25;103506.56;5014500;28;20069;-70
2022/01/23 14:56:37;;;;;;;32.60;18.80;;;;;;;7.37;77.38;103502.13;5012853;28;20058;-69
2022/01/23 14:59:09;;;;;;;34.78;21.25;;;;;;;7.34;77.42;103509.91;5000955;28;20042;-70
2022/01/23 15:01:40;;;;;;;38.55;22.95;;;;;;;7.30;77.42;103513.28;5011299;28;20049;-70
2022/01/23 15:04:10;;;;;;;36.38;21.77;;;;;;;7.28;77.30;103510.63;5005006;28;20078;-70
2022/01/23 15:06:47;;;;;;;40.13;22.80;;;;;;;7.25;77.37;103512.28;5003424;28;20046;-70
2022/01/23 15:09:17;;;;;;;36.38;21.77;;;;;;;7.22;77.52;103515.72;5009767;28;20038;-70
2022/01/23 15:11:46;;;;;;;33.42;20.50;;;;;;;7.19;77.70;103506.88;5006300;28;20046;-69
2022/01/23 15:14:14;;;;;;;38.35;22.70;;;;;;;7.17;77.73;103511.22;5003767;28;20098;-70
2022/01/23 15:16:42;;;;;;;35.53;20.90;;;;;;;7.15;77.81;103514.69;5024130;28;20089;-70
2022/01/23 15:19:10;;;;;;;36.15;21.65;;;;;;;7.13;77.77;103513.75;5010129;28;20038;-70
2022/01/23 15:21:37;;;;;;;34.67;20.23;;;;;;;7.10;77.95;103507.53;5018646;28;20046;-70